Toyo — JD2815 — position and weather

sailwx.info

Track history (hours):
 
Tides and Currents Weather Stations Pressure Air Temp Water Temp Dewpoint Dewpoint Depression Visibility Wind Speed Wind Dir Waves Ship Positions

Toyo

Last reported at 2018-Feb-21 08:03 UTC. Time now 2018-Feb-22 04:24 UTC.
Position N 34°41' E 135°12'.

Length 28 m.

MMSI: 431000747.

Date/timePositionNaut miles runAvg speedWind from/ knotsBaromVisibWave heightAir tempDewpointWater temp
2018-Feb-21 08:03N 34°41' E 135°12'0 1.1
2018-Feb-21 08:00N 34°41' E 135°12'612.8
2018-Feb-21 07:31N 34°37' E 135°06'917.9
2018-Feb-21 07:00N 34°36' E 134°55'917.7
2018-Feb-21 06:28N 34°32' E 134°45'1017.0
2018-Feb-21 05:51N 34°28' E 134°33'9 1.8
2018-Feb-21 00:45N 34°25' E 134°23'311.3
2018-Feb-21 00:27N 34°26' E 134°26'613.1
2018-Feb-21 00:00N 34°29' E 134°33'714.4
2018-Feb-20 23:31N 34°31' E 134°41'714.2
2018-Feb-20 23:00N 34°34' E 134°49'612.5
2018-Feb-20 22:30N 34°37' E 134°56'510.3
2018-Feb-20 22:00N 34°37' E 135°02'5 9.8
2018-Feb-20 21:31N 34°35' E 135°08'2 4.1
2018-Feb-20 21:00N 34°35' E 135°10'510.6
2018-Feb-20 20:30N 34°40' E 135°12'1 2.7
2018-Feb-20 20:00N 34°41' E 135°12'  
2018-Feb-17 06:10N 34°41' E 135°12'0 0.0
2018-Feb-17 06:00N 34°41' E 135°12'3 6.7
2018-Feb-17 05:31N 34°38' E 135°10'816.9
2018-Feb-17 05:00N 34°32' E 135°04'816.1
2018-Feb-17 04:30N 34°25' E 134°59'816.6
2018-Feb-17 04:01N 34°16' E 134°58'4 8.7
2018-Feb-17 03:31N 34°21' E 134°59'713.4
2018-Feb-17 03:00N 34°25' E 135°05'714.0
2018-Feb-17 02:31N 34°29' E 135°12'510.8
2018-Feb-17 02:00N 34°32' E 135°18'4 7.6
2018-Feb-17 01:31N 34°33' E 135°22'1 2.5
2018-Feb-17 01:01N 34°34' E 135°24'0 0.1
2018-Feb-17 00:30N 34°34' E 135°24'3 6.7
2018-Feb-17 00:00N 34°36' E 135°21'713.4
2018-Feb-16 23:30N 34°40' E 135°15'2 4.5
2018-Feb-16 23:00N 34°41' E 135°12'0 0.0
2018-Feb-16 22:31N 34°41' E 135°12'0 0.0
2018-Feb-16 00:30N 34°41' E 135°12'611.3
2018-Feb-16 00:00N 34°38' E 135°17'612.9
2018-Feb-15 23:30N 34°34' E 135°24'2 4.8
2018-Feb-15 23:00N 34°33' E 135°21'4 8.9
2018-Feb-15 22:30N 34°32' E 135°16'612.2
2018-Feb-15 22:00N 34°29' E 135°10'714.1
2018-Feb-15 21:31N 34°23' E 135°04'714.9
2018-Feb-15 21:00N 34°17' E 134°59'510.7
2018-Feb-15 20:30N 34°12' E 134°59'1 1.9
2018-Feb-15 20:00N 34°12' E 134°58'713.2
2018-Feb-15 19:31N 34°19' E 134°58'713.2
2018-Feb-15 19:01N 34°25' E 135°02'714.2
2018-Feb-15 18:30N 34°31' E 135°06'714.5
2018-Feb-15 18:00N 34°37' E 135°10'4 8.2
2018-Feb-15 17:30N 34°41' E 135°12'0 0.0
2018-Feb-15 06:06N 34°41' E 135°12'0 0.0
2018-Feb-15 06:00N 34°41' E 135°12'5 9.1
2018-Feb-15 05:31N 34°40' E 135°18'0 0.4
2018-Feb-15 05:01N 34°40' E 135°17'0 0.2
2018-Feb-15 04:30N 34°40' E 135°18'0 0.1
2018-Feb-15 04:00N 34°40' E 135°18'0 0.1
2018-Feb-15 03:30N 34°40' E 135°18'0 0.2
2018-Feb-15 03:00N 34°40' E 135°18'0 0.1
2018-Feb-15 02:30N 34°40' E 135°18'0 0.1
2018-Feb-15 02:00N 34°40' E 135°18'0 0.1
2018-Feb-15 01:30N 34°40' E 135°18'0 0.1
2018-Feb-15 01:00N 34°40' E 135°18'0 0.2
2018-Feb-15 00:30N 34°40' E 135°18'0 0.1
2018-Feb-15 00:00N 34°40' E 135°18'0 0.0
2018-Feb-14 23:30N 34°40' E 135°18'0 0.1
2018-Feb-14 23:00N 34°40' E 135°18'0 0.1
2018-Feb-14 22:30N 34°40' E 135°18'0 0.3
2018-Feb-14 22:00N 34°40' E 135°17'0 0.2
2018-Feb-14 21:30N 34°40' E 135°17'0 0.4
2018-Feb-14 21:00N 34°40' E 135°18'5 9.1
2018-Feb-14 20:30N 34°41' E 135°12'0 0.0
2018-Feb-13 00:59N 34°41' E 135°12'2 5.1
2018-Feb-13 00:31N 34°41' E 135°15'2 4.1
2018-Feb-13 00:00N 34°40' E 135°18'0 0.3
2018-Feb-12 23:30N 34°40' E 135°18'0 0.1
2018-Feb-12 23:00N 34°40' E 135°18'0 0.6
2018-Feb-12 22:30N 34°40' E 135°18'0 0.4
2018-Feb-12 22:01N 34°40' E 135°17'0 0.1
2018-Feb-12 21:30N 34°40' E 135°18'0 0.1
2018-Feb-12 21:01N 34°40' E 135°18'4 8.8
2018-Feb-12 20:30N 34°41' E 135°12'0 0.2
2018-Feb-12 20:00N 34°41' E 135°12'0 0.0
2018-Feb-12 02:02N 34°41' E 135°12'0 0.0
2018-Feb-12 02:00N 34°41' E 135°12'0 0.0
2018-Feb-12 01:30N 34°41' E 135°12'0 0.1
2018-Feb-12 01:00N 34°41' E 135°12'0 0.1
2018-Feb-12 00:30N 34°41' E 135°12'0 0.0
2018-Feb-12 00:00N 34°41' E 135°12'0 0.0
2018-Feb-11 23:30N 34°41' E 135°12'0 0.1
2018-Feb-11 23:00N 34°41' E 135°12'0 0.1
2018-Feb-11 22:30N 34°41' E 135°12'4 7.5
2018-Feb-11 22:00N 34°41' E 135°17'1 1.6
2018-Feb-11 21:30N 34°40' E 135°18'0 0.0
2018-Feb-11 21:01N 34°40' E 135°18'5 9.0
2018-Feb-11 20:30N 34°41' E 135°12'  
Track history (hours):
 
Tides and Currents Weather Stations Pressure Air Temp Water Temp Dewpoint Dewpoint Depression Visibility Wind Speed Wind Dir Waves Ship Positions

Toyo

Last reported at 2018-Feb-21 08:03 UTC. Time now 2018-Feb-22 04:24 UTC.
Position N 34°41' E 135°12'.

Length 28 m.

MMSI: 431000747.

Date/timePositionNaut miles runAvg speedWind from/ knotsBaromVisibWave heightAir tempDewpointWater temp
2018-Feb-21 08:03N 34°41' E 135°12'0 1.1
2018-Feb-21 08:00N 34°41' E 135°12'612.8
2018-Feb-21 07:31N 34°37' E 135°06'917.9
2018-Feb-21 07:00N 34°36' E 134°55'917.7
2018-Feb-21 06:28N 34°32' E 134°45'1017.0
2018-Feb-21 05:51N 34°28' E 134°33'9 1.8
2018-Feb-21 00:45N 34°25' E 134°23'311.3
2018-Feb-21 00:27N 34°26' E 134°26'613.1
2018-Feb-21 00:00N 34°29' E 134°33'714.4
2018-Feb-20 23:31N 34°31' E 134°41'714.2
2018-Feb-20 23:00N 34°34' E 134°49'612.5
2018-Feb-20 22:30N 34°37' E 134°56'510.3
2018-Feb-20 22:00N 34°37' E 135°02'5 9.8
2018-Feb-20 21:31N 34°35' E 135°08'2 4.1
2018-Feb-20 21:00N 34°35' E 135°10'510.6
2018-Feb-20 20:30N 34°40' E 135°12'1 2.7
2018-Feb-20 20:00N 34°41' E 135°12'  
2018-Feb-17 06:10N 34°41' E 135°12'0 0.0
2018-Feb-17 06:00N 34°41' E 135°12'3 6.7
2018-Feb-17 05:31N 34°38' E 135°10'816.9
2018-Feb-17 05:00N 34°32' E 135°04'816.1
2018-Feb-17 04:30N 34°25' E 134°59'816.6
2018-Feb-17 04:01N 34°16' E 134°58'4 8.7
2018-Feb-17 03:31N 34°21' E 134°59'713.4
2018-Feb-17 03:00N 34°25' E 135°05'714.0
2018-Feb-17 02:31N 34°29' E 135°12'510.8
2018-Feb-17 02:00N 34°32' E 135°18'4 7.6
2018-Feb-17 01:31N 34°33' E 135°22'1 2.5
2018-Feb-17 01:01N 34°34' E 135°24'0 0.1
2018-Feb-17 00:30N 34°34' E 135°24'3 6.7
2018-Feb-17 00:00N 34°36' E 135°21'713.4
2018-Feb-16 23:30N 34°40' E 135°15'2 4.5
2018-Feb-16 23:00N 34°41' E 135°12'0 0.0
2018-Feb-16 22:31N 34°41' E 135°12'0 0.0
2018-Feb-16 00:30N 34°41' E 135°12'611.3
2018-Feb-16 00:00N 34°38' E 135°17'612.9
2018-Feb-15 23:30N 34°34' E 135°24'2 4.8
2018-Feb-15 23:00N 34°33' E 135°21'4 8.9
2018-Feb-15 22:30N 34°32' E 135°16'612.2
2018-Feb-15 22:00N 34°29' E 135°10'714.1
2018-Feb-15 21:31N 34°23' E 135°04'714.9
2018-Feb-15 21:00N 34°17' E 134°59'510.7
2018-Feb-15 20:30N 34°12' E 134°59'1 1.9
2018-Feb-15 20:00N 34°12' E 134°58'713.2
2018-Feb-15 19:31N 34°19' E 134°58'713.2
2018-Feb-15 19:01N 34°25' E 135°02'714.2
2018-Feb-15 18:30N 34°31' E 135°06'714.5
2018-Feb-15 18:00N 34°37' E 135°10'4 8.2
2018-Feb-15 17:30N 34°41' E 135°12'0 0.0
2018-Feb-15 06:06N 34°41' E 135°12'0 0.0
2018-Feb-15 06:00N 34°41' E 135°12'5 9.1
2018-Feb-15 05:31N 34°40' E 135°18'0 0.4
2018-Feb-15 05:01N 34°40' E 135°17'0 0.2
2018-Feb-15 04:30N 34°40' E 135°18'0 0.1
2018-Feb-15 04:00N 34°40' E 135°18'0 0.1
2018-Feb-15 03:30N 34°40' E 135°18'0 0.2
2018-Feb-15 03:00N 34°40' E 135°18'0 0.1
2018-Feb-15 02:30N 34°40' E 135°18'0 0.1
2018-Feb-15 02:00N 34°40' E 135°18'0 0.1
2018-Feb-15 01:30N 34°40' E 135°18'0 0.1
2018-Feb-15 01:00N 34°40' E 135°18'0 0.2
2018-Feb-15 00:30N 34°40' E 135°18'0 0.1
2018-Feb-15 00:00N 34°40' E 135°18'0 0.0
2018-Feb-14 23:30N 34°40' E 135°18'0 0.1
2018-Feb-14 23:00N 34°40' E 135°18'0 0.1
2018-Feb-14 22:30N 34°40' E 135°18'0 0.3
2018-Feb-14 22:00N 34°40' E 135°17'0 0.2
2018-Feb-14 21:30N 34°40' E 135°17'0 0.4
2018-Feb-14 21:00N 34°40' E 135°18'5 9.1
2018-Feb-14 20:30N 34°41' E 135°12'0 0.0
2018-Feb-13 00:59N 34°41' E 135°12'2 5.1
2018-Feb-13 00:31N 34°41' E 135°15'2 4.1
2018-Feb-13 00:00N 34°40' E 135°18'0 0.3
2018-Feb-12 23:30N 34°40' E 135°18'0 0.1
2018-Feb-12 23:00N 34°40' E 135°18'0 0.6
2018-Feb-12 22:30N 34°40' E 135°18'0 0.4
2018-Feb-12 22:01N 34°40' E 135°17'0 0.1
2018-Feb-12 21:30N 34°40' E 135°18'0 0.1
2018-Feb-12 21:01N 34°40' E 135°18'4 8.8
2018-Feb-12 20:30N 34°41' E 135°12'0 0.2
2018-Feb-12 20:00N 34°41' E 135°12'0 0.0
2018-Feb-12 02:02N 34°41' E 135°12'0 0.0
2018-Feb-12 02:00N 34°41' E 135°12'0 0.0
2018-Feb-12 01:30N 34°41' E 135°12'0 0.1
2018-Feb-12 01:00N 34°41' E 135°12'0 0.1
2018-Feb-12 00:30N 34°41' E 135°12'0 0.0
2018-Feb-12 00:00N 34°41' E 135°12'0 0.0
2018-Feb-11 23:30N 34°41' E 135°12'0 0.1
2018-Feb-11 23:00N 34°41' E 135°12'0 0.1
2018-Feb-11 22:30N 34°41' E 135°12'4 7.5
2018-Feb-11 22:00N 34°41' E 135°17'1 1.6
2018-Feb-11 21:30N 34°40' E 135°18'0 0.0
2018-Feb-11 21:01N 34°40' E 135°18'5 9.0
2018-Feb-11 20:30N 34°41' E 135°12'  

Dump ship's entire track history